Time;durP1;ratioP1;P1;durP2;ratioP2;P2;SDS_P1;SDS_P2;PMS_P1;PMS_P2;Temp;Humidity;BMP_temperature;BMP_pressure;BME280_temperature;BME280_humidity;BME280_pressure;Samples;Min_cycle;Max_cycle;Signal;HPM_P1;HPM_P2
2021/04/17 00:01:54;;;;;;;2.28;1.00;;;12.40;70.60;;;;;;5050362;28;20103;-47
2021/04/17 00:04:22;;;;;;;1.13;1.02;;;12.40;70.60;;;;;;5049983;28;20528;-50
2021/04/17 00:06:49;;;;;;;1.05;0.95;;;12.40;70.60;;;;;;5050154;28;20045;-48
2021/04/17 00:09:20;;;;;;;1.13;0.88;;;12.40;70.60;;;;;;5050447;28;20152;-48
2021/04/17 00:11:46;;;;;;;1.05;1.02;;;12.40;70.60;;;;;;5080430;28;20039;-49
2021/04/17 00:14:16;;;;;;;1.13;1.00;;;12.40;70.70;;;;;;5111872;28;20078;-53
2021/04/17 00:16:43;;;;;;;0.98;0.88;;;12.40;70.70;;;;;;5113055;28;20052;-49
2021/04/17 00:19:09;;;;;;;1.83;1.10;;;12.40;70.70;;;;;;5112861;28;20092;-47
2021/04/17 00:21:34;;;;;;;1.02;0.90;;;12.40;70.60;;;;;;5113139;28;20039;-48
2021/04/17 00:24:03;;;;;;;2.15;1.35;;;12.40;70.70;;;;;;5113024;28;20110;-49
2021/04/17 00:26:30;;;;;;;1.67;1.00;;;12.40;70.70;;;;;;5113184;28;20165;-51
2021/04/17 00:28:56;;;;;;;1.40;1.00;;;12.40;70.70;;;;;;5112148;28;20051;-49
2021/04/17 00:31:22;;;;;;;1.55;1.25;;;12.40;70.70;;;;;;5112440;28;20047;-46
2021/04/17 00:33:47;;;;;;;0.88;0.80;;;12.40;70.70;;;;;;5095917;28;20065;-51
2021/04/17 00:36:13;;;;;;;1.58;1.00;;;12.40;70.70;;;;;;5112638;28;20495;-49
2021/04/17 00:38:39;;;;;;;2.45;1.30;;;12.30;70.70;;;;;;5112917;28;20043;-49
2021/04/17 00:41:05;;;;;;;1.17;1.05;;;12.40;70.70;;;;;;5115541;28;20043;-51
2021/04/17 00:43:31;;;;;;;2.00;1.00;;;12.30;70.70;;;;;;5116206;28;20126;-50
2021/04/17 00:45:56;;;;;;;1.17;0.90;;;12.40;70.80;;;;;;5116474;28;20086;-46
2021/04/17 00:48:22;;;;;;;1.63;1.15;;;12.30;70.70;;;;;;5116812;28;20559;-47
2021/04/17 00:50:48;;;;;;;1.00;0.80;;;12.40;70.80;;;;;;5116512;28;20125;-50
2021/04/17 00:53:15;;;;;;;1.40;1.10;;;12.40;70.80;;;;;;5116186;28;20055;-46
2021/04/17 00:55:41;;;;;;;1.55;0.93;;;12.40;70.80;;;;;;5115899;28;20480;-54
2021/04/17 00:58:07;;;;;;;0.75;0.75;;;12.40;70.80;;;;;;5116549;28;20047;-51
2021/04/17 01:00:36;;;;;;;1.08;1.08;;;12.40;70.80;;;;;;5115332;28;20043;-51
2021/04/17 01:03:22;;;;;;;1.10;0.88;;;12.30;70.80;;;;;;5115990;28;20039;-47
2021/04/17 01:05:51;;;;;;;1.08;0.98;;;12.30;70.80;;;;;;5116208;27;20407;-50
2021/04/17 01:08:40;;;;;;;1.25;1.00;;;12.40;70.80;;;;;;5116289;28;20131;-49
2021/04/17 01:11:12;;;;;;;0.98;0.82;;;12.30;70.80;;;;;;5115933;28;20104;-47
2021/04/17 01:13:42;;;;;;;1.27;1.17;;;12.30;70.80;;;;;;5115628;28;20108;-50
2021/04/17 01:16:08;;;;;;;1.70;0.93;;;12.30;70.80;;;;;;5115663;28;20043;-46
2021/04/17 01:18:35;;;;;;;1.17;1.00;;;12.30;70.80;;;;;;5116181;28;20459;-51
2021/04/17 01:21:02;;;;;;;1.85;1.35;;;12.30;70.80;;;;;;5116133;28;20050;-45
2021/04/17 01:23:37;;;;;;;1.08;0.80;;;12.30;70.80;;;;;;5115851;28;20063;-47
2021/04/17 01:26:06;;;;;;;1.88;1.05;;;12.30;70.80;;;;;;5103615;28;20084;-52
2021/04/17 01:28:39;;;;;;;1.20;1.10;;;12.30;70.90;;;;;;5115973;28;20043;-45
2021/04/17 01:31:07;;;;;;;0.95;0.90;;;12.30;70.80;;;;;;5115378;28;20070;-51
2021/04/17 01:33:36;;;;;;;1.02;0.80;;;12.30;70.90;;;;;;5115882;28;20082;-49
2021/04/17 01:36:03;;;;;;;1.40;1.00;;;12.30;70.90;;;;;;5115609;28;20054;-53
2021/04/17 01:38:38;;;;;;;1.33;1.17;;;12.30;70.90;;;;;;5115736;27;20499;-48
2021/04/17 01:41:09;;;;;;;1.25;0.80;;;12.30;70.90;;;;;;5115129;28;20051;-44
2021/04/17 01:43:35;;;;;;;1.13;0.70;;;12.30;70.90;;;;;;5113925;28;20122;-44
2021/04/17 01:46:12;;;;;;;1.20;0.65;;;12.30;70.90;;;;;;5114940;28;20126;-46
2021/04/17 01:48:39;;;;;;;1.33;0.88;;;12.30;70.90;;;;;;5115179;28;20480;-43
2021/04/17 01:51:06;;;;;;;1.67;1.00;;;12.30;70.90;;;;;;5114264;28;20112;-44
2021/04/17 01:53:37;;;;;;;1.10;0.90;;;12.30;70.90;;;;;;5114905;28;20055;-46
2021/04/17 01:56:04;;;;;;;0.80;0.80;;;12.30;71.00;;;;;;5114720;28;20058;-51
2021/04/17 01:58:32;;;;;;;1.13;1.00;;;12.30;70.90;;;;;;5115492;28;20096;-47
2021/04/17 02:00:58;;;;;;;1.13;0.85;;;12.30;70.90;;;;;;5115009;28;20048;-46
2021/04/17 02:03:24;;;;;;;1.38;0.90;;;12.30;70.90;;;;;;5115313;28;20048;-42
2021/04/17 02:05:52;;;;;;;1.27;0.90;;;12.30;71.00;;;;;;5114715;28;20476;-41
2021/04/17 02:08:18;;;;;;;1.30;1.00;;;12.30;70.90;;;;;;5114681;28;20062;-45
2021/04/17 02:10:47;;;;;;;0.93;0.88;;;12.30;71.00;;;;;;5114518;28;20059;-45
2021/04/17 02:13:14;;;;;;;2.22;0.80;;;12.30;70.90;;;;;;5114771;28;20050;-47
2021/04/17 02:15:42;;;;;;;1.23;0.65;;;12.30;71.00;;;;;;5114802;28;20100;-46
2021/04/17 02:18:18;;;;;;;0.90;0.77;;;12.20;70.90;;;;;;5113987;28;20129;-45
2021/04/17 02:20:50;;;;;;;1.00;0.88;;;12.20;70.90;;;;;;5115009;28;20047;-41
2021/04/17 02:23:17;;;;;;;1.38;0.90;;;12.30;71.00;;;;;;5114712;28;20055;-43
2021/04/17 02:25:43;;;;;;;1.20;1.00;;;12.20;70.90;;;;;;5114550;28;20088;-45
2021/04/17 02:28:09;;;;;;;1.25;1.05;;;12.30;71.00;;;;;;5114410;28;20040;-47
2021/04/17 02:30:38;;;;;;;0.80;0.80;;;12.30;71.00;;;;;;5114728;28;20551;-45
2021/04/17 02:33:05;;;;;;;2.28;1.23;;;12.30;71.00;;;;;;5114517;28;20051;-43
2021/04/17 02:35:31;;;;;;;1.20;0.73;;;12.20;71.00;;;;;;5114464;28;20047;-52
2021/04/17 02:37:57;;;;;;;1.02;0.90;;;12.30;71.00;;;;;;5113960;28;20402;-53
2021/04/17 02:40:23;;;;;;;1.10;0.90;;;12.20;71.00;;;;;;5114710;28;20043;-52
2021/04/17 02:42:49;;;;;;;0.73;0.73;;;12.20;71.00;;;;;;5114582;28;20074;-55
2021/04/17 02:45:15;;;;;;;1.95;0.95;;;12.20;71.00;;;;;;5114415;28;20050;-54
2021/04/17 02:47:40;;;;;;;1.00;0.90;;;12.20;71.00;;;;;;5114440;28;20484;-52
2021/04/17 02:50:06;;;;;;;1.23;0.88;;;12.20;71.00;;;;;;5113903;28;20047;-44
2021/04/17 02:52:32;;;;;;;1.17;0.90;;;12.20;71.10;;;;;;5114107;28;20054;-49
2021/04/17 02:54:58;;;;;;;1.13;0.80;;;12.20;71.00;;;;;;5114351;28;20060;-54
2021/04/17 02:57:24;;;;;;;1.50;0.80;;;12.20;71.00;;;;;;5113868;28;20105;-51
2021/04/17 02:59:50;;;;;;;1.58;0.93;;;12.20;71.00;;;;;;5113945;28;20039;-50
2021/04/17 03:02:15;;;;;;;1.35;0.80;;;12.20;71.10;;;;;;5113401;28;20475;-50
2021/04/17 03:04:41;;;;;;;1.08;0.70;;;12.20;71.10;;;;;;5114057;28;20589;-51
2021/04/17 03:07:07;;;;;;;0.77;0.73;;;12.20;71.10;;;;;;5113573;28;20479;-52
2021/04/17 03:09:33;;;;;;;1.35;0.88;;;12.20;71.10;;;;;;5113666;28;20100;-52
2021/04/17 03:11:59;;;;;;;0.93;0.80;;;12.20;71.10;;;;;;5113304;28;20142;-53
2021/04/17 03:14:24;;;;;;;0.77;0.77;;;12.20;71.10;;;;;;5113522;28;20054;-47
2021/04/17 03:16:51;;;;;;;0.70;0.70;;;12.20;71.10;;;;;;5113765;28;20050;-52
2021/04/17 03:19:17;;;;;;;0.80;0.80;;;12.20;71.10;;;;;;5113264;27;20048;-49
2021/04/17 03:21:43;;;;;;;0.95;0.73;;;12.20;71.10;;;;;;5113207;28;20415;-46
2021/04/17 03:24:09;;;;;;;1.05;0.85;;;12.20;71.10;;;;;;5113637;28;20040;-50
2021/04/17 03:26:34;;;;;;;0.98;0.90;;;12.20;71.10;;;;;;5113799;28;20495;-53
2021/04/17 03:29:00;;;;;;;1.45;0.80;;;12.20;71.10;;;;;;5113595;28;20043;-52
2021/04/17 03:31:26;;;;;;;1.02;0.95;;;12.20;71.10;;;;;;5113130;28;20168;-49
2021/04/17 03:33:53;;;;;;;1.98;1.05;;;12.20;71.10;;;;;;5113368;28;20300;-53
2021/04/17 03:36:18;;;;;;;1.00;0.70;;;12.20;71.10;;;;;;5113035;28;20046;-51
2021/04/17 03:38:44;;;;;;;0.63;0.63;;;12.20;71.10;;;;;;5113650;28;20043;-49
2021/04/17 03:41:10;;;;;;;2.35;0.85;;;12.10;71.10;;;;;;5112990;28;20381;-49
2021/04/17 03:43:35;;;;;;;1.00;0.80;;;12.10;71.10;;;;;;5113282;28;20047;-47
2021/04/17 03:46:03;;;;;;;0.80;0.80;;;12.10;71.10;;;;;;5113261;28;20047;-50
2021/04/17 03:48:29;;;;;;;0.70;0.63;;;12.10;71.10;;;;;;5113088;28;20067;-51
2021/04/17 03:50:54;;;;;;;1.50;0.70;;;12.20;71.10;;;;;;5113082;28;20047;-47
2021/04/17 03:53:20;;;;;;;2.30;0.88;;;12.20;71.10;;;;;;5112434;28;20442;-50
2021/04/17 03:55:46;;;;;;;1.88;1.13;;;12.20;71.20;;;;;;5112899;28;20039;-52
2021/04/17 03:58:12;;;;;;;1.13;0.90;;;12.20;71.10;;;;;;5113136;28;20619;-52
2021/04/17 04:00:38;;;;;;;2.60;1.15;;;12.20;71.10;;;;;;5113334;28;20071;-53
2021/04/17 04:03:04;;;;;;;1.10;1.00;;;12.10;71.10;;;;;;5112464;28;20047;-47
2021/04/17 04:05:29;;;;;;;1.02;0.90;;;12.20;71.10;;;;;;5113065;28;20108;-52
2021/04/17 04:07:55;;;;;;;0.77;0.75;;;12.20;71.10;;;;;;5112840;28;20053;-52
2021/04/17 04:10:21;;;;;;;1.70;0.80;;;12.10;71.10;;;;;;5112911;28;20051;-52
2021/04/17 04:12:47;;;;;;;0.68;0.65;;;12.20;71.10;;;;;;5113110;28;20118;-47
2021/04/17 04:15:14;;;;;;;1.30;0.73;;;12.10;71.10;;;;;;5114569;28;20047;-50
2021/04/17 04:17:40;;;;;;;1.45;0.80;;;12.10;71.10;;;;;;5117147;28;20110;-51
2021/04/17 04:20:06;;;;;;;1.55;1.00;;;12.10;71.10;;;;;;5116954;28;20040;-53
2021/04/17 04:22:33;;;;;;;1.08;0.80;;;12.10;71.10;;;;;;5116712;28;20047;-53
2021/04/17 04:24:59;;;;;;;0.80;0.80;;;12.10;71.10;;;;;;5116086;28;20173;-48
2021/04/17 04:27:25;;;;;;;1.23;0.80;;;12.10;71.10;;;;;;5116290;28;20515;-51
2021/04/17 04:29:52;;;;;;;0.85;0.65;;;12.10;71.10;;;;;;5116035;28;20067;-46
2021/04/17 04:32:18;;;;;;;0.80;0.73;;;12.10;71.10;;;;;;5116803;28;20400;-50
2021/04/17 04:34:44;;;;;;;2.58;0.80;;;12.10;71.10;;;;;;5116640;28;20040;-52
2021/04/17 04:37:09;;;;;;;1.15;0.88;;;12.10;71.10;;;;;;5116321;28;20051;-50
2021/04/17 04:39:35;;;;;;;2.95;1.00;;;12.10;71.10;;;;;;5116964;28;20071;-48
2021/04/17 04:42:01;;;;;;;1.20;0.90;;;12.10;71.10;;;;;;5116637;28;20052;-48
2021/04/17 04:44:26;;;;;;;1.52;0.77;;;12.10;71.10;;;;;;5116781;28;20050;-50
2021/04/17 04:46:52;;;;;;;0.52;0.52;;;12.10;71.20;;;;;;5116775;28;20047;-52
2021/04/17 04:49:18;;;;;;;1.20;0.80;;;12.20;71.20;;;;;;5116704;28;20479;-53
2021/04/17 04:51:44;;;;;;;0.98;0.90;;;12.10;71.10;;;;;;5116217;28;20479;-45
2021/04/17 04:54:09;;;;;;;2.53;1.30;;;12.10;71.10;;;;;;5115563;28;20075;-46
2021/04/17 04:56:36;;;;;;;1.83;1.10;;;12.10;71.10;;;;;;5116351;28;20049;-44
2021/04/17 04:59:01;;;;;;;0.63;0.63;;;12.10;71.10;;;;;;5116805;28;20040;-44
2021/04/17 05:01:27;;;;;;;1.25;1.10;;;12.10;71.10;;;;;;5116563;28;20072;-42
2021/04/17 05:03:53;;;;;;;1.98;0.90;;;12.10;71.10;;;;;;5116243;28;20043;-47
2021/04/17 05:06:18;;;;;;;1.48;0.90;;;12.00;71.10;;;;;;5116501;28;20150;-45
2021/04/17 05:08:44;;;;;;;1.88;0.85;;;12.10;71.20;;;;;;5116276;28;20055;-46
2021/04/17 05:11:10;;;;;;;0.93;0.77;;;12.10;71.10;;;;;;5114965;28;20055;-45
2021/04/17 05:13:36;;;;;;;1.27;0.82;;;12.10;71.20;;;;;;5116338;28;20501;-45
2021/04/17 05:16:02;;;;;;;3.58;1.23;;;12.10;71.10;;;;;;5116046;28;20050;-50
2021/04/17 05:18:27;;;;;;;1.77;0.73;;;12.00;71.10;;;;;;5116328;28;20043;-45
2021/04/17 05:20:53;;;;;;;1.15;0.88;;;12.00;71.10;;;;;;5116142;28;20039;-46
2021/04/17 05:23:19;;;;;;;0.73;0.60;;;12.10;71.20;;;;;;5116116;28;20055;-49
2021/04/17 05:25:44;;;;;;;1.35;0.90;;;12.10;71.10;;;;;;5115591;28;20108;-54
2021/04/17 05:28:11;;;;;;;1.67;1.10;;;12.00;71.10;;;;;;5115984;28;20423;-54
2021/04/17 05:30:37;;;;;;;1.27;1.13;;;12.00;71.10;;;;;;5116077;28;20055;-51
2021/04/17 05:33:04;;;;;;;1.08;0.90;;;12.10;71.20;;;;;;5116012;28;20047;-45
2021/04/17 05:35:30;;;;;;;1.50;0.73;;;12.10;71.20;;;;;;5115581;28;20079;-43
2021/04/17 05:37:56;;;;;;;0.95;0.75;;;12.10;71.20;;;;;;5116064;28;20101;-54
2021/04/17 05:40:22;;;;;;;1.25;1.02;;;12.10;71.20;;;;;;5115558;28;20471;-43
2021/04/17 05:42:48;;;;;;;1.30;1.02;;;12.00;71.10;;;;;;5115749;28;20044;-48
2021/04/17 05:45:14;;;;;;;0.88;0.88;;;12.00;71.10;;;;;;5115687;28;20405;-50
2021/04/17 05:47:39;;;;;;;1.42;1.00;;;12.00;71.10;;;;;;5115413;28;20048;-50
2021/04/17 05:50:06;;;;;;;0.55;0.55;;;12.00;71.20;;;;;;5115519;28;20040;-51
2021/04/17 05:52:31;;;;;;;2.65;1.17;;;12.00;71.10;;;;;;5115301;28;20062;-50
2021/04/17 05:54:57;;;;;;;1.15;0.90;;;12.00;71.20;;;;;;5114579;28;20044;-52
2021/04/17 05:57:23;;;;;;;1.65;0.80;;;12.00;71.20;;;;;;5115390;28;20047;-49
2021/04/17 05:59:49;;;;;;;1.23;1.08;;;12.00;71.20;;;;;;5115110;28;20050;-44
2021/04/17 06:02:15;;;;;;;1.00;0.70;;;12.00;71.20;;;;;;5114615;28;20044;-54
2021/04/17 06:04:40;;;;;;;0.98;0.70;;;12.00;71.20;;;;;;5115230;28;20480;-54
2021/04/17 06:07:06;;;;;;;2.17;0.75;;;12.00;71.20;;;;;;5115115;28;20043;-51
2021/04/17 06:09:32;;;;;;;1.65;1.10;;;12.00;71.20;;;;;;5115381;28;20438;-48
2021/04/17 06:11:57;;;;;;;1.55;1.10;;;12.00;71.20;;;;;;5114877;28;20088;-50
2021/04/17 06:14:23;;;;;;;2.03;0.90;;;12.00;71.20;;;;;;5115035;28;20104;-52
2021/04/17 06:16:49;;;;;;;1.25;1.05;;;12.00;71.60;;;;;;5115207;28;20122;-51
2021/04/17 06:19:14;;;;;;;1.45;0.80;;;12.00;71.30;;;;;;5113462;28;20039;-51
2021/04/17 06:21:40;;;;;;;1.40;0.82;;;12.00;71.30;;;;;;5114694;28;20052;-46
2021/04/17 06:24:06;;;;;;;1.50;1.23;;;12.00;71.30;;;;;;5115210;28;20387;-51
2021/04/17 06:26:32;;;;;;;1.70;1.00;;;12.00;71.30;;;;;;5115010;27;20075;-54
2021/04/17 06:28:58;;;;;;;1.77;0.82;;;12.00;71.30;;;;;;5114388;28;20124;-42
2021/04/17 06:31:24;;;;;;;2.00;1.10;;;12.00;71.50;;;;;;5114907;28;20403;-42
2021/04/17 06:33:50;;;;;;;1.80;1.13;;;12.00;71.30;;;;;;5114231;28;20058;-41
2021/04/17 06:36:16;;;;;;;1.30;1.10;;;12.00;71.30;;;;;;5114202;28;20066;-41
2021/04/17 06:38:41;;;;;;;2.58;0.93;;;12.00;71.40;;;;;;5112428;28;20372;-50
2021/04/17 06:41:08;;;;;;;1.40;0.98;;;12.00;71.30;;;;;;5114440;28;20055;-43
2021/04/17 06:43:40;;;;;;;1.30;0.85;;;12.00;71.30;;;;;;5114624;28;20495;-47
2021/04/17 06:46:09;;;;;;;2.75;1.25;;;12.00;71.40;;;;;;5114501;28;20107;-45
2021/04/17 06:48:39;;;;;;;1.42;0.95;;;12.00;71.40;;;;;;5114871;28;20116;-54
2021/04/17 06:51:11;;;;;;;1.48;1.02;;;12.00;71.40;;;;;;5114389;28;20096;-42
2021/04/17 06:53:39;;;;;;;1.60;1.00;;;12.00;71.40;;;;;;5112247;28;20044;-47
2021/04/17 06:56:06;;;;;;;1.52;0.80;;;12.00;71.40;;;;;;5114339;28;20381;-50
2021/04/17 06:58:32;;;;;;;1.30;0.90;;;12.00;71.50;;;;;;5114184;28;20048;-50
2021/04/17 07:00:59;;;;;;;2.17;1.05;;;12.00;71.40;;;;;;5114291;28;20510;-51
2021/04/17 07:03:25;;;;;;;1.40;0.98;;;12.00;71.40;;;;;;5114302;28;20048;-54
2021/04/17 07:05:50;;;;;;;1.52;1.02;;;12.00;71.50;;;;;;5114181;28;20384;-41
2021/04/17 07:08:16;;;;;;;1.88;1.08;;;12.00;71.50;;;;;;5114261;28;20122;-41
2021/04/17 07:10:42;;;;;;;1.70;1.10;;;12.00;71.50;;;;;;5113940;28;20500;-43
2021/04/17 07:13:13;;;;;;;2.90;1.50;;;12.00;71.40;;;;;;5113862;28;20126;-45
2021/04/17 07:15:40;;;;;;;1.52;1.10;;;12.10;71.50;;;;;;5114222;28;20051;-41
2021/04/17 07:18:25;;;;;;;1.55;0.85;;;12.10;71.50;;;;;;5113894;28;20044;-39
2021/04/17 07:20:52;;;;;;;2.78;0.90;;;12.10;71.50;;;;;;5113965;28;20039;-41
2021/04/17 07:23:29;;;;;;;4.32;1.00;;;12.00;71.50;;;;;;5114066;28;20043;-40
2021/04/17 07:26:22;;;;;;;2.95;1.42;;;12.00;71.50;;;;;;5113996;28;20067;-43
2021/04/17 07:29:14;;;;;;;1.58;0.85;;;12.10;71.50;;;;;;5113590;28;20082;-42
2021/04/17 07:31:54;;;;;;;3.63;1.23;;;12.10;71.50;;;;;;5113820;27;20043;-45
2021/04/17 07:34:22;;;;;;;3.10;1.13;;;12.10;71.50;;;;;;5113802;28;20126;-46
2021/04/17 07:36:52;;;;;;;2.15;1.08;;;12.10;71.50;;;;;;5113733;28;20048;-43
2021/04/17 07:39:36;;;;;;;1.70;1.10;;;12.10;71.50;;;;;;5113839;28;20054;-43
2021/04/17 07:42:08;;;;;;;2.47;0.90;;;12.10;71.50;;;;;;5113602;28;20092;-43
2021/04/17 07:44:39;;;;;;;1.85;1.15;;;12.10;71.50;;;;;;5113219;28;20039;-46
2021/04/17 07:47:05;;;;;;;1.35;0.88;;;12.10;71.50;;;;;;5113361;28;20043;-44
2021/04/17 07:49:31;;;;;;;2.58;1.25;;;12.10;71.50;;;;;;5112682;28;20047;-43
2021/04/17 07:52:11;;;;;;;1.30;0.90;;;12.10;71.40;;;;;;5113486;28;20054;-50
2021/04/17 07:54:59;;;;;;;2.03;1.05;;;12.20;71.50;;;;;;5113440;28;20047;-46
2021/04/17 07:57:35;;;;;;;2.60;1.23;;;12.20;71.50;;;;;;5106890;28;20039;-42
2021/04/17 08:00:03;;;;;;;1.80;1.17;;;12.10;71.40;;;;;;5113213;28;20484;-40
2021/04/17 08:02:31;;;;;;;2.58;1.00;;;12.20;71.40;;;;;;5113139;28;20065;-43
2021/04/17 08:04:59;;;;;;;1.60;0.80;;;12.20;71.40;;;;;;5113281;28;20050;-43
2021/04/17 08:07:25;;;;;;;2.08;1.10;;;12.20;71.40;;;;;;5113604;28;20142;-46
2021/04/17 08:09:53;;;;;;;2.78;1.00;;;12.20;71.40;;;;;;5113443;28;20104;-43
2021/04/17 08:12:20;;;;;;;3.03;1.50;;;12.20;71.40;;;;;;5113091;28;20048;-42
2021/04/17 08:14:46;;;;;;;12.60;3.40;;;12.20;71.30;;;;;;5112579;28;20087;-48
2021/04/17 08:17:12;;;;;;;12.43;2.55;;;13.00;70.70;;;;;;5113075;28;20544;-50
2021/04/17 08:19:38;;;;;;;10.68;2.40;;;13.30;69.40;;;;;;5113125;28;20051;-48
2021/04/17 08:22:04;;;;;;;6.18;2.30;;;13.30;68.80;;;;;;5113449;28;20046;-49
2021/04/17 08:24:30;;;;;;;8.68;2.67;;;13.30;68.50;;;;;;5113234;28;20472;-46
2021/04/17 08:26:59;;;;;;;7.05;2.20;;;13.30;68.30;;;;;;5113345;28;20043;-51
2021/04/17 08:29:43;;;;;;;4.57;2.28;;;13.30;68.20;;;;;;5112785;28;20559;-47
2021/04/17 08:32:26;;;;;;;7.07;2.95;;;13.30;68.10;;;;;;5112956;28;20104;-52
2021/04/17 08:35:15;;;;;;;10.13;2.90;;;13.20;68.10;;;;;;5112972;28;20071;-48
2021/04/17 08:37:56;;;;;;;5.22;2.30;;;13.20;68.10;;;;;;5106480;28;20070;-52
2021/04/17 08:40:46;;;;;;;8.65;2.35;;;13.20;68.20;;;;;;5112967;28;20055;-50
2021/04/17 08:43:15;;;;;;;3.97;1.83;;;13.10;68.30;;;;;;5070133;28;20079;-45
2021/04/17 08:45:59;;;;;;;7.80;2.55;;;13.10;68.40;;;;;;5069889;28;20424;-50
2021/04/17 08:49:01;;;;;;;3.85;2.17;;;13.10;68.40;;;;;;5050193;28;20132;-48
2021/04/17 08:51:29;;;;;;;3.88;2.60;;;13.00;68.50;;;;;;4971631;28;20081;-50
2021/04/17 08:54:01;;;;;;;8.27;2.33;;;13.00;68.60;;;;;;4971458;28;20067;-48
2021/04/17 08:56:49;;;;;;;5.55;2.45;;;13.00;68.70;;;;;;4971292;28;20078;-51
2021/04/17 08:59:25;;;;;;;3.35;2.20;;;13.00;68.80;;;;;;4971290;28;20546;-45
2021/04/17 09:01:53;;;;;;;4.38;2.33;;;12.90;68.80;;;;;;4973847;28;20062;-47
2021/04/17 09:04:19;;;;;;;5.93;2.38;;;12.90;68.80;;;;;;4975169;28;20151;-48
2021/04/17 09:06:47;;;;;;;4.43;1.92;;;12.90;68.90;;;;;;4974824;28;20134;-45
2021/04/17 09:09:16;;;;;;;4.28;1.80;;;12.90;68.90;;;;;;4974924;28;20058;-45
2021/04/17 09:11:43;;;;;;;4.72;1.83;;;12.90;69.00;;;;;;4974446;28;20059;-46
2021/04/17 09:14:28;;;;;;;6.90;1.88;;;12.90;69.00;;;;;;4974616;28;20050;-49
2021/04/17 09:17:02;;;;;;;2.40;1.58;;;12.90;69.10;;;;;;4974450;28;20082;-45
2021/04/17 09:19:40;;;;;;;3.20;1.88;;;12.90;69.10;;;;;;4987341;28;20164;-44
2021/04/17 09:22:34;;;;;;;3.28;1.50;;;12.90;69.10;;;;;;5033635;28;20049;-46
2021/04/17 09:25:12;;;;;;;3.78;1.77;;;12.90;69.20;;;;;;5053932;28;20043;-51
2021/04/17 09:27:44;;;;;;;4.45;1.92;;;12.90;69.20;;;;;;5095919;28;20077;-52
2021/04/17 09:30:14;;;;;;;5.10;1.92;;;12.90;69.20;;;;;;5095850;28;20495;-46
2021/04/17 09:32:46;;;;;;;3.00;1.77;;;12.90;69.90;;;;;;5095419;28;20503;-43
2021/04/17 09:35:19;;;;;;;2.67;1.75;;;12.90;69.20;;;;;;5095542;28;20453;-40
2021/04/17 09:37:48;;;;;;;3.00;2.10;;;13.00;69.30;;;;;;5095425;28;20111;-47
2021/04/17 09:40:14;;;;;;;4.53;2.05;;;13.00;70.00;;;;;;5095576;28;20131;-43
2021/04/17 09:42:41;;;;;;;5.78;2.53;;;13.10;68.30;;;;;;5095792;28;20070;-45
2021/04/17 09:45:11;;;;;;;3.97;1.98;;;13.20;68.40;;;;;;5095465;28;20637;-44
2021/04/17 09:47:57;;;;;;;3.78;2.08;;;13.20;68.30;;;;;;5109737;28;20050;-44
2021/04/17 09:50:25;;;;;;;6.75;2.55;;;13.20;68.10;;;;;;5115758;28;20052;-47
2021/04/17 09:52:52;;;;;;;3.17;1.70;;;13.30;68.10;;;;;;5115482;28;20043;-52
2021/04/17 09:55:17;;;;;;;5.03;2.10;;;13.30;68.10;;;;;;5115652;28;20047;-49
2021/04/17 09:57:48;;;;;;;4.07;2.10;;;13.30;68.10;;;;;;5115480;28;20055;-49
2021/04/17 10:00:15;;;;;;;5.68;2.28;;;13.30;68.10;;;;;;5115695;28;20135;-48
2021/04/17 10:02:43;;;;;;;3.85;1.80;;;13.30;68.10;;;;;;5115434;28;20082;-45
2021/04/17 10:05:11;;;;;;;2.47;1.70;;;13.30;68.10;;;;;;5115593;28;20043;-48
2021/04/17 10:07:44;;;;;;;4.10;1.73;;;13.30;68.10;;;;;;5115248;28;20047;-43
2021/04/17 10:10:11;;;;;;;3.42;1.70;;;13.30;68.10;;;;;;5115609;28;20044;-52
2021/04/17 10:12:48;;;;;;;3.30;1.90;;;13.30;68.20;;;;;;5114123;27;20060;-52
2021/04/17 10:15:15;;;;;;;3.58;1.83;;;13.30;68.20;;;;;;5115357;28;20158;-46
2021/04/17 10:17:42;;;;;;;5.28;2.03;;;13.30;68.20;;;;;;5115428;28;20048;-48
2021/04/17 10:20:09;;;;;;;3.30;2.03;;;13.30;68.30;;;;;;5114820;28;20137;-48
2021/04/17 10:22:35;;;;;;;2.83;1.55;;;13.30;68.30;;;;;;5114971;28;20080;-48
2021/04/17 10:25:01;;;;;;;3.20;1.90;;;13.30;68.30;;;;;;5115074;28;20048;-47
2021/04/17 10:27:33;;;;;;;2.60;1.33;;;13.40;68.40;;;;;;5114814;28;20055;-50
2021/04/17 10:30:00;;;;;;;4.18;2.13;;;13.30;68.30;;;;;;5115017;28;20487;-50
2021/04/17 10:32:31;;;;;;;3.63;1.70;;;13.30;68.30;;;;;;5115100;28;20384;-45
2021/04/17 10:35:11;;;;;;;3.15;1.60;;;13.30;68.40;;;;;;5114280;28;20043;-46
2021/04/17 10:37:47;;;;;;;3.35;1.58;;;13.30;68.40;;;;;;5114758;28;20507;-44
2021/04/17 10:40:15;;;;;;;2.10;1.38;;;13.30;68.40;;;;;;5114541;28;20416;-47
2021/04/17 10:42:51;;;;;;;5.15;2.83;;;13.30;68.40;;;;;;5114786;28;20130;-49
2021/04/17 10:45:18;;;;;;;;;;;13.40;64.70;;;;;;5114842;28;20488;-45
2021/04/17 10:48:16;;;;;;;7.00;2.15;;;13.30;63.90;;;;;;5114519;28;19923;-50
2021/04/17 10:51:03;;;;;;;5.75;2.45;;;13.40;65.80;;;;;;5114096;28;20036;-47
2021/04/17 10:53:31;;;;;;;11.38;2.42;;;13.40;66.10;;;;;;5114395;28;20040;-50
2021/04/17 10:56:12;;;;;;;21.20;3.67;;;13.40;65.70;;;;;;5114034;28;20043;-49
2021/04/17 10:58:38;;;;;;;10.10;3.80;;;13.50;64.50;;;;;;5114451;28;20048;-47
2021/04/17 11:01:09;;;;;;;14.40;3.33;;;13.50;64.90;;;;;;5114114;28;20066;-48
2021/04/17 11:03:44;;;;;;;16.95;3.58;;;13.50;64.90;;;;;;5114107;28;20051;-50
2021/04/17 11:06:13;;;;;;;9.68;3.10;;;13.60;64.90;;;;;;5114116;28;20048;-50
2021/04/17 11:08:39;;;;;;;10.63;3.08;;;13.60;65.00;;;;;;5114359;28;20054;-50
2021/04/17 11:11:13;;;;;;;8.63;2.92;;;13.60;65.10;;;;;;5113907;28;20043;-52
2021/04/17 11:13:44;;;;;;;9.40;3.15;;;13.70;65.10;;;;;;5114342;28;20039;-52
2021/04/17 11:16:12;;;;;;;7.13;2.53;;;13.70;65.20;;;;;;5114170;28;20101;-48
2021/04/17 11:18:43;;;;;;;6.15;2.45;;;13.70;65.30;;;;;;5113801;27;20040;-48
2021/04/17 11:21:12;;;;;;;14.48;2.80;;;13.70;65.30;;;;;;5112600;28;20228;-52
2021/04/17 11:23:54;;;;;;;6.80;2.42;;;13.60;65.20;;;;;;5113683;28;20044;-51
2021/04/17 11:26:21;;;;;;;7.55;2.83;;;13.80;65.40;;;;;;5113885;28;20055;-46
2021/04/17 11:28:53;;;;;;;9.93;2.55;;;13.80;65.50;;;;;;5114111;28;20122;-47
2021/04/17 11:31:26;;;;;;;10.00;2.78;;;13.80;65.50;;;;;;5113673;28;20048;-50
2021/04/17 11:33:54;;;;;;;4.78;1.95;;;13.80;65.50;;;;;;5113529;28;20043;-50
2021/04/17 11:36:23;;;;;;;5.82;2.20;;;13.80;65.60;;;;;;5113346;28;20153;-47
2021/04/17 11:38:49;;;;;;;5.65;2.10;;;13.80;65.60;;;;;;5113669;27;20067;-47
2021/04/17 11:41:15;;;;;;;8.43;3.30;;;13.80;65.60;;;;;;5113501;28;20506;-49
2021/04/17 11:43:40;;;;;;;4.15;1.88;;;13.80;65.70;;;;;;5113420;28;20047;-47
2021/04/17 11:46:06;;;;;;;3.53;2.10;;;13.80;65.70;;;;;;5113510;28;20075;-54
2021/04/17 11:48:32;;;;;;;2.72;1.98;;;13.90;65.80;;;;;;5113562;28;20059;-49
2021/04/17 11:50:58;;;;;;;4.60;2.50;;;13.80;65.80;;;;;;5113304;28;20527;-52
2021/04/17 11:53:24;;;;;;;6.22;1.80;;;13.80;65.80;;;;;;5113266;28;20100;-52
2021/04/17 11:55:51;;;;;;;7.95;2.28;;;13.90;65.90;;;;;;5113482;28;20044;-51
2021/04/17 11:58:18;;;;;;;6.97;2.17;;;14.00;65.90;;;;;;5113403;28;20122;-54
2021/04/17 12:00:44;;;;;;;4.90;1.85;;;13.90;65.90;;;;;;5113368;28;20487;-53
2021/04/17 12:03:15;;;;;;;5.32;2.08;;;13.90;66.00;;;;;;5113174;28;20050;-54
2021/04/17 12:05:42;;;;;;;5.55;1.85;;;13.90;66.00;;;;;;5112844;28;20043;-49
2021/04/17 12:08:08;;;;;;;3.55;2.08;;;13.90;66.00;;;;;;5112944;28;20040;-50
2021/04/17 12:10:34;;;;;;;4.30;2.10;;;13.90;66.10;;;;;;5113010;28;20054;-55
2021/04/17 12:12:59;;;;;;;4.97;2.08;;;13.90;66.10;;;;;;5113079;28;20499;-53
2021/04/17 12:15:25;;;;;;;7.32;2.20;;;13.90;66.10;;;;;;5113124;28;20077;-52
2021/04/17 12:17:51;;;;;;;5.70;2.28;;;13.90;66.10;;;;;;5113231;28;20054;-54
2021/04/17 12:20:17;;;;;;;4.28;1.75;;;13.90;66.20;;;;;;5113254;28;20044;-47
2021/04/17 12:22:42;;;;;;;5.30;1.70;;;13.90;66.20;;;;;;5112964;28;20172;-54
2021/04/17 12:25:09;;;;;;;5.75;2.05;;;13.90;66.20;;;;;;5112981;28;20447;-50
2021/04/17 12:27:36;;;;;;;4.38;2.10;;;13.90;65.40;;;;;;5113181;28;20051;-55
2021/04/17 12:30:05;;;;;;;3.78;1.80;;;13.90;65.50;;;;;;5113410;28;20056;-54
2021/04/17 12:32:31;;;;;;;3.72;2.00;;;13.90;65.60;;;;;;5113149;28;20050;-55
2021/04/17 12:34:57;;;;;;;3.63;1.63;;;13.90;65.60;;;;;;5113241;28;20048;-51
2021/04/17 12:37:23;;;;;;;3.25;1.60;;;14.00;65.70;;;;;;5117093;28;20084;-54
2021/04/17 12:39:49;;;;;;;3.90;1.73;;;14.00;65.80;;;;;;5116720;28;20048;-52
2021/04/17 12:42:15;;;;;;;4.28;2.28;;;14.00;65.80;;;;;;5117213;28;20058;-57
2021/04/17 12:44:41;;;;;;;2.85;2.10;;;14.00;65.80;;;;;;5117126;28;20533;-56
2021/04/17 12:47:07;;;;;;;3.03;1.75;;;14.10;65.90;;;;;;5116359;28;20488;-57
2021/04/17 12:49:33;;;;;;;2.38;1.70;;;14.10;65.80;;;;;;5116745;28;20048;-53
2021/04/17 12:51:58;;;;;;;3.92;1.63;;;14.10;65.90;;;;;;5117142;28;20050;-57
2021/04/17 12:54:24;;;;;;;6.43;1.80;;;14.00;65.80;;;;;;5116478;28;20471;-46